sensor_id;sensor_type;location;lat;lon;timestamp;P1;durP1;ratioP1;P2;durP2;ratioP2
82473;SDS011;72350;53.232;6.556;2024-03-23T00:52:36;24.40;;;5.60;;
82473;SDS011;72350;53.232;6.556;2024-03-23T00:55:03;26.70;;;7.93;;
82473;SDS011;72350;53.232;6.556;2024-03-23T00:57:29;30.30;;;8.25;;
82473;SDS011;72350;53.232;6.556;2024-03-23T00:59:56;25.85;;;5.57;;
82473;SDS011;72350;53.232;6.556;2024-03-23T01:02:22;30.08;;;5.63;;
82473;SDS011;72350;53.232;6.556;2024-03-23T01:04:48;40.83;;;9.07;;
82473;SDS011;72350;53.232;6.556;2024-03-23T01:07:14;28.65;;;7.28;;
82473;SDS011;72350;53.232;6.556;2024-03-23T01:09:43;32.45;;;6.28;;
82473;SDS011;72350;53.232;6.556;2024-03-23T01:12:09;30.52;;;6.80;;
82473;SDS011;72350;53.232;6.556;2024-03-23T01:14:36;36.08;;;7.18;;
82473;SDS011;72350;53.232;6.556;2024-03-23T01:17:02;31.67;;;5.60;;
82473;SDS011;72350;53.232;6.556;2024-03-23T01:19:29;24.02;;;6.38;;
82473;SDS011;72350;53.232;6.556;2024-03-23T01:21:56;29.65;;;7.95;;
82473;SDS011;72350;53.232;6.556;2024-03-23T01:24:22;31.15;;;8.25;;
82473;SDS011;72350;53.232;6.556;2024-03-23T01:26:50;17.77;;;4.88;;
82473;SDS011;72350;53.232;6.556;2024-03-23T01:29:16;28.95;;;7.25;;
82473;SDS011;72350;53.232;6.556;2024-03-23T01:31:43;27.40;;;6.75;;
82473;SDS011;72350;53.232;6.556;2024-03-23T01:34:09;20.05;;;5.47;;
82473;SDS011;72350;53.232;6.556;2024-03-23T01:36:35;23.83;;;4.65;;
82473;SDS011;72350;53.232;6.556;2024-03-23T01:39:01;27.65;;;5.65;;
82473;SDS011;72350;53.232;6.556;2024-03-23T01:41:29;30.15;;;7.97;;
82473;SDS011;72350;53.232;6.556;2024-03-23T01:43:56;22.27;;;5.35;;
82473;SDS011;72350;53.232;6.556;2024-03-23T01:46:23;29.42;;;6.75;;
82473;SDS011;72350;53.232;6.556;2024-03-23T01:48:49;22.63;;;5.22;;
82473;SDS011;72350;53.232;6.556;2024-03-23T01:51:16;31.80;;;6.43;;
82473;SDS011;72350;53.232;6.556;2024-03-23T01:53:42;22.30;;;5.53;;
82473;SDS011;72350;53.232;6.556;2024-03-23T01:56:09;29.00;;;8.32;;
82473;SDS011;72350;53.232;6.556;2024-03-23T01:58:35;25.33;;;5.40;;
82473;SDS011;72350;53.232;6.556;2024-03-23T02:01:03;19.90;;;7.05;;
82473;SDS011;72350;53.232;6.556;2024-03-23T02:03:30;33.35;;;7.32;;
82473;SDS011;72350;53.232;6.556;2024-03-23T02:05:57;25.33;;;5.47;;
82473;SDS011;72350;53.232;6.556;2024-03-23T02:08:23;30.00;;;5.20;;
82473;SDS011;72350;53.232;6.556;2024-03-23T02:10:50;33.05;;;5.95;;
82473;SDS011;72350;53.232;6.556;2024-03-23T02:13:17;33.42;;;6.60;;
82473;SDS011;72350;53.232;6.556;2024-03-23T02:15:45;23.67;;;4.97;;
82473;SDS011;72350;53.232;6.556;2024-03-23T02:18:12;32.03;;;7.35;;
82473;SDS011;72350;53.232;6.556;2024-03-23T02:20:39;24.85;;;5.53;;
82473;SDS011;72350;53.232;6.556;2024-03-23T02:23:10;36.78;;;11.15;;
82473;SDS011;72350;53.232;6.556;2024-03-23T02:25:39;25.80;;;6.68;;
82473;SDS011;72350;53.232;6.556;2024-03-23T02:28:05;26.10;;;5.97;;
82473;SDS011;72350;53.232;6.556;2024-03-23T02:30:32;21.05;;;5.10;;
82473;SDS011;72350;53.232;6.556;2024-03-23T02:32:58;29.45;;;5.25;;
82473;SDS011;72350;53.232;6.556;2024-03-23T02:35:25;24.05;;;5.07;;
82473;SDS011;72350;53.232;6.556;2024-03-23T02:37:51;22.88;;;5.88;;
82473;SDS011;72350;53.232;6.556;2024-03-23T02:40:21;26.58;;;5.47;;
82473;SDS011;72350;53.232;6.556;2024-03-23T02:42:48;26.27;;;4.82;;
82473;SDS011;72350;53.232;6.556;2024-03-23T02:45:15;19.85;;;4.25;;
82473;SDS011;72350;53.232;6.556;2024-03-23T02:47:41;24.80;;;4.60;;
82473;SDS011;72350;53.232;6.556;2024-03-23T02:50:08;17.10;;;4.68;;
82473;SDS011;72350;53.232;6.556;2024-03-23T02:52:34;22.17;;;4.38;;
82473;SDS011;72350;53.232;6.556;2024-03-23T02:55:01;22.60;;;4.57;;
82473;SDS011;72350;53.232;6.556;2024-03-23T02:57:29;22.13;;;5.57;;
82473;SDS011;72350;53.232;6.556;2024-03-23T02:59:56;24.27;;;6.18;;
82473;SDS011;72350;53.232;6.556;2024-03-23T03:02:22;26.15;;;4.18;;
82473;SDS011;72350;53.232;6.556;2024-03-23T03:04:49;22.10;;;4.18;;
82473;SDS011;72350;53.232;6.556;2024-03-23T03:07:15;22.98;;;4.80;;
82473;SDS011;72350;53.232;6.556;2024-03-23T03:09:42;26.25;;;4.47;;
82473;SDS011;72350;53.232;6.556;2024-03-23T03:12:08;16.58;;;4.47;;
82473;SDS011;72350;53.232;6.556;2024-03-23T03:14:36;17.63;;;4.30;;
82473;SDS011;72350;53.232;6.556;2024-03-23T03:17:02;19.17;;;4.40;;
82473;SDS011;72350;53.232;6.556;2024-03-23T03:19:30;20.10;;;3.85;;
82473;SDS011;72350;53.232;6.556;2024-03-23T03:21:56;28.35;;;4.70;;
82473;SDS011;72350;53.232;6.556;2024-03-23T03:24:23;23.75;;;4.72;;
82473;SDS011;72350;53.232;6.556;2024-03-23T03:26:49;16.23;;;3.10;;
82473;SDS011;72350;53.232;6.556;2024-03-23T03:29:17;20.42;;;3.78;;
82473;SDS011;72350;53.232;6.556;2024-03-23T03:31:44;17.17;;;3.20;;
82473;SDS011;72350;53.232;6.556;2024-03-23T03:34:11;22.85;;;3.60;;
82473;SDS011;72350;53.232;6.556;2024-03-23T03:36:37;17.27;;;3.97;;
82473;SDS011;72350;53.232;6.556;2024-03-23T03:39:04;16.92;;;4.75;;
82473;SDS011;72350;53.232;6.556;2024-03-23T03:41:30;19.48;;;3.78;;
82473;SDS011;72350;53.232;6.556;2024-03-23T03:43:57;24.83;;;4.07;;
82473;SDS011;72350;53.232;6.556;2024-03-23T03:46:27;18.33;;;3.58;;
82473;SDS011;72350;53.232;6.556;2024-03-23T03:48:55;30.55;;;5.07;;
82473;SDS011;72350;53.232;6.556;2024-03-23T03:51:39;17.05;;;3.17;;
82473;SDS011;72350;53.232;6.556;2024-03-23T03:54:06;18.38;;;3.25;;
82473;SDS011;72350;53.232;6.556;2024-03-23T03:56:32;16.90;;;2.97;;
82473;SDS011;72350;53.232;6.556;2024-03-23T03:58:59;15.00;;;3.50;;
82473;SDS011;72350;53.232;6.556;2024-03-23T04:01:25;12.18;;;3.58;;
82473;SDS011;72350;53.232;6.556;2024-03-23T04:03:52;16.45;;;3.08;;
82473;SDS011;72350;53.232;6.556;2024-03-23T04:06:22;16.33;;;2.85;;
82473;SDS011;72350;53.232;6.556;2024-03-23T04:08:49;20.27;;;4.10;;
82473;SDS011;72350;53.232;6.556;2024-03-23T04:11:15;19.85;;;4.57;;
82473;SDS011;72350;53.232;6.556;2024-03-23T04:13:41;24.80;;;4.63;;
82473;SDS011;72350;53.232;6.556;2024-03-23T04:16:08;17.90;;;3.45;;
82473;SDS011;72350;53.232;6.556;2024-03-23T04:18:35;18.55;;;4.18;;
82473;SDS011;72350;53.232;6.556;2024-03-23T04:21:01;17.02;;;3.65;;
82473;SDS011;72350;53.232;6.556;2024-03-23T04:23:30;16.75;;;2.83;;
82473;SDS011;72350;53.232;6.556;2024-03-23T04:25:57;15.35;;;3.00;;
82473;SDS011;72350;53.232;6.556;2024-03-23T04:28:30;14.32;;;2.97;;
82473;SDS011;72350;53.232;6.556;2024-03-23T04:30:56;12.85;;;2.83;;
82473;SDS011;72350;53.232;6.556;2024-03-23T04:33:23;14.35;;;3.05;;
82473;SDS011;72350;53.232;6.556;2024-03-23T04:35:49;21.92;;;4.43;;
82473;SDS011;72350;53.232;6.556;2024-03-23T04:38:16;18.10;;;3.15;;
82473;SDS011;72350;53.232;6.556;2024-03-23T04:40:45;16.40;;;3.20;;
82473;SDS011;72350;53.232;6.556;2024-03-23T04:43:19;20.33;;;5.22;;
82473;SDS011;72350;53.232;6.556;2024-03-23T04:45:46;18.08;;;2.85;;
82473;SDS011;72350;53.232;6.556;2024-03-23T04:48:13;17.30;;;2.72;;
82473;SDS011;72350;53.232;6.556;2024-03-23T04:50:40;14.55;;;3.13;;
82473;SDS011;72350;53.232;6.556;2024-03-23T04:53:07;11.18;;;2.95;;
82473;SDS011;72350;53.232;6.556;2024-03-23T04:55:34;13.52;;;3.00;;
82473;SDS011;72350;53.232;6.556;2024-03-23T04:58:02;21.98;;;4.15;;
82473;SDS011;72350;53.232;6.556;2024-03-23T05:00:28;16.63;;;2.67;;
82473;SDS011;72350;53.232;6.556;2024-03-23T05:02:55;13.98;;;2.75;;
82473;SDS011;72350;53.232;6.556;2024-03-23T05:05:21;16.17;;;2.72;;
82473;SDS011;72350;53.232;6.556;2024-03-23T05:07:48;18.95;;;4.45;;
82473;SDS011;72350;53.232;6.556;2024-03-23T05:10:14;16.73;;;3.58;;
82473;SDS011;72350;53.232;6.556;2024-03-23T05:12:42;15.25;;;2.83;;
82473;SDS011;72350;53.232;6.556;2024-03-23T05:15:09;16.50;;;3.42;;
82473;SDS011;72350;53.232;6.556;2024-03-23T05:17:37;14.65;;;2.80;;
82473;SDS011;72350;53.232;6.556;2024-03-23T05:20:04;14.55;;;2.38;;
82473;SDS011;72350;53.232;6.556;2024-03-23T05:22:35;26.25;;;5.00;;
82473;SDS011;72350;53.232;6.556;2024-03-23T05:25:01;15.80;;;2.75;;
82473;SDS011;72350;53.232;6.556;2024-03-23T05:27:30;16.20;;;3.10;;
82473;SDS011;72350;53.232;6.556;2024-03-23T05:29:56;20.05;;;4.07;;
82473;SDS011;72350;53.232;6.556;2024-03-23T05:32:24;21.45;;;2.70;;
82473;SDS011;72350;53.232;6.556;2024-03-23T05:34:50;12.27;;;2.92;;
82473;SDS011;72350;53.232;6.556;2024-03-23T05:37:21;14.20;;;3.25;;
82473;SDS011;72350;53.232;6.556;2024-03-23T05:39:47;16.38;;;3.03;;
82473;SDS011;72350;53.232;6.556;2024-03-23T05:42:15;20.35;;;4.68;;
82473;SDS011;72350;53.232;6.556;2024-03-23T05:44:42;16.67;;;2.60;;
82473;SDS011;72350;53.232;6.556;2024-03-23T05:47:09;14.95;;;3.13;;
82473;SDS011;72350;53.232;6.556;2024-03-23T05:49:37;16.70;;;3.85;;
82473;SDS011;72350;53.232;6.556;2024-03-23T05:52:04;11.30;;;2.63;;
82473;SDS011;72350;53.232;6.556;2024-03-23T05:54:30;17.83;;;3.00;;
82473;SDS011;72350;53.232;6.556;2024-03-23T05:56:58;15.80;;;3.03;;
82473;SDS011;72350;53.232;6.556;2024-03-23T05:59:25;12.45;;;3.13;;
82473;SDS011;72350;53.232;6.556;2024-03-23T06:01:52;16.95;;;4.30;;
82473;SDS011;72350;53.232;6.556;2024-03-23T06:04:19;15.32;;;3.28;;
82473;SDS011;72350;53.232;6.556;2024-03-23T06:06:46;18.27;;;4.53;;
82473;SDS011;72350;53.232;6.556;2024-03-23T06:09:13;15.55;;;2.63;;
82473;SDS011;72350;53.232;6.556;2024-03-23T06:11:39;14.88;;;3.53;;
82473;SDS011;72350;53.232;6.556;2024-03-23T06:14:06;15.60;;;3.45;;
82473;SDS011;72350;53.232;6.556;2024-03-23T06:16:32;16.17;;;2.53;;
82473;SDS011;72350;53.232;6.556;2024-03-23T06:18:59;15.75;;;3.10;;
82473;SDS011;72350;53.232;6.556;2024-03-23T06:21:25;13.13;;;2.00;;
82473;SDS011;72350;53.232;6.556;2024-03-23T06:23:53;12.65;;;3.22;;
82473;SDS011;72350;53.232;6.556;2024-03-23T06:26:20;12.85;;;2.72;;
82473;SDS011;72350;53.232;6.556;2024-03-23T06:28:47;10.93;;;2.90;;
82473;SDS011;72350;53.232;6.556;2024-03-23T06:31:16;11.73;;;2.25;;
82473;SDS011;72350;53.232;6.556;2024-03-23T06:33:43;14.75;;;2.20;;
82473;SDS011;72350;53.232;6.556;2024-03-23T06:36:09;13.23;;;2.72;;
82473;SDS011;72350;53.232;6.556;2024-03-23T06:38:37;10.52;;;2.08;;
82473;SDS011;72350;53.232;6.556;2024-03-23T06:41:05;8.77;;;1.95;;
82473;SDS011;72350;53.232;6.556;2024-03-23T06:43:32;9.02;;;1.92;;
82473;SDS011;72350;53.232;6.556;2024-03-23T06:45:58;11.07;;;1.77;;
82473;SDS011;72350;53.232;6.556;2024-03-23T06:48:25;13.93;;;2.20;;
82473;SDS011;72350;53.232;6.556;2024-03-23T06:50:54;14.25;;;3.13;;
82473;SDS011;72350;53.232;6.556;2024-03-23T06:53:22;14.93;;;2.28;;
82473;SDS011;72350;53.232;6.556;2024-03-23T06:55:50;8.20;;;1.60;;
82473;SDS011;72350;53.232;6.556;2024-03-23T06:58:19;8.07;;;2.03;;
82473;SDS011;72350;53.232;6.556;2024-03-23T07:00:45;10.05;;;2.03;;
82473;SDS011;72350;53.232;6.556;2024-03-23T07:03:12;10.38;;;2.45;;
82473;SDS011;72350;53.232;6.556;2024-03-23T07:05:38;12.07;;;2.05;;
82473;SDS011;72350;53.232;6.556;2024-03-23T07:08:05;12.65;;;2.70;;
82473;SDS011;72350;53.232;6.556;2024-03-23T07:10:32;11.82;;;1.92;;
82473;SDS011;72350;53.232;6.556;2024-03-23T07:12:59;12.10;;;2.45;;
82473;SDS011;72350;53.232;6.556;2024-03-23T07:15:27;9.57;;;2.17;;
82473;SDS011;72350;53.232;6.556;2024-03-23T07:17:53;8.77;;;2.92;;
82473;SDS011;72350;53.232;6.556;2024-03-23T07:20:19;10.77;;;2.00;;
82473;SDS011;72350;53.232;6.556;2024-03-23T07:22:46;9.35;;;1.85;;
82473;SDS011;72350;53.232;6.556;2024-03-23T07:25:12;8.70;;;1.70;;
82473;SDS011;72350;53.232;6.556;2024-03-23T07:27:39;9.57;;;2.00;;
82473;SDS011;72350;53.232;6.556;2024-03-23T07:30:06;5.40;;;1.40;;
82473;SDS011;72350;53.232;6.556;2024-03-23T07:32:35;9.18;;;1.80;;
82473;SDS011;72350;53.232;6.556;2024-03-23T07:35:02;9.80;;;1.90;;
82473;SDS011;72350;53.232;6.556;2024-03-23T07:37:29;5.55;;;1.50;;
82473;SDS011;72350;53.232;6.556;2024-03-23T07:39:55;6.75;;;2.38;;
82473;SDS011;72350;53.232;6.556;2024-03-23T07:42:22;8.82;;;1.80;;
82473;SDS011;72350;53.232;6.556;2024-03-23T07:44:48;8.38;;;1.50;;
82473;SDS011;72350;53.232;6.556;2024-03-23T07:47:16;8.35;;;1.90;;
82473;SDS011;72350;53.232;6.556;2024-03-23T07:49:43;11.43;;;2.65;;
82473;SDS011;72350;53.232;6.556;2024-03-23T07:52:10;7.80;;;1.23;;
82473;SDS011;72350;53.232;6.556;2024-03-23T07:54:36;5.28;;;1.63;;
82473;SDS011;72350;53.232;6.556;2024-03-23T07:57:04;9.80;;;3.08;;
82473;SDS011;72350;53.232;6.556;2024-03-23T07:59:30;21.33;;;10.75;;
82473;SDS011;72350;53.232;6.556;2024-03-23T08:01:57;8.32;;;5.07;;
82473;SDS011;72350;53.232;6.556;2024-03-23T08:04:23;29.73;;;13.13;;
82473;SDS011;72350;53.232;6.556;2024-03-23T08:06:51;84.78;;;44.00;;
82473;SDS011;72350;53.232;6.556;2024-03-23T08:09:17;13.95;;;6.22;;
82473;SDS011;72350;53.232;6.556;2024-03-23T08:11:44;20.27;;;8.30;;
82473;SDS011;72350;53.232;6.556;2024-03-23T08:14:12;48.97;;;25.77;;
82473;SDS011;72350;53.232;6.556;2024-03-23T08:16:38;25.38;;;12.70;;
82473;SDS011;72350;53.232;6.556;2024-03-23T08:19:04;35.72;;;17.33;;
82473;SDS011;72350;53.232;6.556;2024-03-23T08:21:34;23.52;;;10.13;;
82473;SDS011;72350;53.232;6.556;2024-03-23T08:24:01;12.02;;;4.68;;
82473;SDS011;72350;53.232;6.556;2024-03-23T08:26:28;42.10;;;19.38;;
82473;SDS011;72350;53.232;6.556;2024-03-23T08:28:54;28.63;;;10.23;;
82473;SDS011;72350;53.232;6.556;2024-03-23T08:31:22;33.35;;;14.75;;
82473;SDS011;72350;53.232;6.556;2024-03-23T08:33:48;10.95;;;3.83;;
82473;SDS011;72350;53.232;6.556;2024-03-23T08:36:15;16.80;;;7.40;;
82473;SDS011;72350;53.232;6.556;2024-03-23T08:38:42;103.13;;;51.30;;
82473;SDS011;72350;53.232;6.556;2024-03-23T08:41:11;18.70;;;8.38;;
82473;SDS011;72350;53.232;6.556;2024-03-23T08:43:38;28.23;;;13.80;;
82473;SDS011;72350;53.232;6.556;2024-03-23T08:46:05;17.42;;;6.60;;
82473;SDS011;72350;53.232;6.556;2024-03-23T08:48:34;26.13;;;11.05;;
82473;SDS011;72350;53.232;6.556;2024-03-23T08:51:01;38.70;;;19.50;;
82473;SDS011;72350;53.232;6.556;2024-03-23T08:53:28;14.50;;;6.13;;
82473;SDS011;72350;53.232;6.556;2024-03-23T08:55:55;89.00;;;48.35;;
82473;SDS011;72350;53.232;6.556;2024-03-23T08:58:24;68.65;;;34.58;;
82473;SDS011;72350;53.232;6.556;2024-03-23T09:00:51;22.60;;;10.43;;
82473;SDS011;72350;53.232;6.556;2024-03-23T09:03:18;11.57;;;4.63;;
82473;SDS011;72350;53.232;6.556;2024-03-23T09:05:44;85.68;;;44.65;;
82473;SDS011;72350;53.232;6.556;2024-03-23T09:08:11;55.83;;;26.42;;
82473;SDS011;72350;53.232;6.556;2024-03-23T09:10:38;26.73;;;8.23;;
82473;SDS011;72350;53.232;6.556;2024-03-23T09:13:05;65.60;;;32.08;;
82473;SDS011;72350;53.232;6.556;2024-03-23T09:15:33;34.80;;;16.15;;
82473;SDS011;72350;53.232;6.556;2024-03-23T09:18:01;24.45;;;9.15;;
82473;SDS011;72350;53.232;6.556;2024-03-23T09:20:27;27.98;;;11.50;;
82473;SDS011;72350;53.232;6.556;2024-03-23T09:22:54;27.60;;;12.95;;
82473;SDS011;72350;53.232;6.556;2024-03-23T09:25:20;77.32;;;38.00;;
82473;SDS011;72350;53.232;6.556;2024-03-23T09:27:47;35.85;;;19.38;;
82473;SDS011;72350;53.232;6.556;2024-03-23T09:30:13;71.97;;;37.38;;
82473;SDS011;72350;53.232;6.556;2024-03-23T09:32:43;41.25;;;18.95;;
82473;SDS011;72350;53.232;6.556;2024-03-23T09:35:10;34.50;;;18.42;;
82473;SDS011;72350;53.232;6.556;2024-03-23T09:37:37;13.57;;;5.38;;
82473;SDS011;72350;53.232;6.556;2024-03-23T09:40:05;20.30;;;7.65;;
82473;SDS011;72350;53.232;6.556;2024-03-23T09:42:36;28.70;;;15.45;;
82473;SDS011;72350;53.232;6.556;2024-03-23T09:45:02;40.13;;;18.38;;
82473;SDS011;72350;53.232;6.556;2024-03-23T09:47:32;29.73;;;13.20;;
82473;SDS011;72350;53.232;6.556;2024-03-23T09:50:00;15.50;;;5.22;;
82473;SDS011;72350;53.232;6.556;2024-03-23T09:52:27;12.27;;;6.25;;
82473;SDS011;72350;53.232;6.556;2024-03-23T09:54:53;31.30;;;14.98;;
82473;SDS011;72350;53.232;6.556;2024-03-23T09:57:20;59.83;;;29.88;;
82473;SDS011;72350;53.232;6.556;2024-03-23T09:59:46;15.68;;;7.20;;
82473;SDS011;72350;53.232;6.556;2024-03-23T10:02:13;51.70;;;25.90;;
82473;SDS011;72350;53.232;6.556;2024-03-23T10:04:42;14.90;;;6.13;;
82473;SDS011;72350;53.232;6.556;2024-03-23T10:07:14;53.50;;;26.63;;
82473;SDS011;72350;53.232;6.556;2024-03-23T10:09:42;31.88;;;15.00;;
82473;SDS011;72350;53.232;6.556;2024-03-23T10:12:09;42.42;;;20.58;;
82473;SDS011;72350;53.232;6.556;2024-03-23T10:14:36;60.42;;;31.17;;
82473;SDS011;72350;53.232;6.556;2024-03-23T10:17:13;39.00;;;19.17;;
82473;SDS011;72350;53.232;6.556;2024-03-23T10:19:40;147.32;;;77.18;;
82473;SDS011;72350;53.232;6.556;2024-03-23T10:22:08;91.60;;;47.78;;
82473;SDS011;72350;53.232;6.556;2024-03-23T10:24:36;71.68;;;33.85;;
82473;SDS011;72350;53.232;6.556;2024-03-23T10:27:03;93.85;;;47.20;;
82473;SDS011;72350;53.232;6.556;2024-03-23T10:29:29;35.88;;;15.98;;
82473;SDS011;72350;53.232;6.556;2024-03-23T10:32:07;62.00;;;30.13;;
82473;SDS011;72350;53.232;6.556;2024-03-23T10:34:33;47.45;;;21.98;;
82473;SDS011;72350;53.232;6.556;2024-03-23T10:37:01;30.63;;;12.68;;
82473;SDS011;72350;53.232;6.556;2024-03-23T10:39:29;67.85;;;34.15;;
82473;SDS011;72350;53.232;6.556;2024-03-23T10:42:00;66.13;;;29.50;;
82473;SDS011;72350;53.232;6.556;2024-03-23T10:44:28;131.85;;;71.50;;
82473;SDS011;72350;53.232;6.556;2024-03-23T10:46:57;47.22;;;22.08;;
82473;SDS011;72350;53.232;6.556;2024-03-23T10:49:27;79.47;;;40.75;;
82473;SDS011;72350;53.232;6.556;2024-03-23T10:51:59;61.50;;;30.75;;
82473;SDS011;72350;53.232;6.556;2024-03-23T10:54:26;53.10;;;27.15;;
82473;SDS011;72350;53.232;6.556;2024-03-23T10:56:56;46.40;;;25.00;;
82473;SDS011;72350;53.232;6.556;2024-03-23T10:59:26;55.00;;;28.48;;
82473;SDS011;72350;53.232;6.556;2024-03-23T11:01:55;60.33;;;32.67;;
82473;SDS011;72350;53.232;6.556;2024-03-23T11:04:32;78.90;;;42.10;;
82473;SDS011;72350;53.232;6.556;2024-03-23T11:07:00;55.03;;;28.95;;
82473;SDS011;72350;53.232;6.556;2024-03-23T11:09:38;45.20;;;23.30;;
82473;SDS011;72350;53.232;6.556;2024-03-23T11:12:25;70.88;;;36.78;;
82473;SDS011;72350;53.232;6.556;2024-03-23T11:14:55;74.60;;;40.53;;
82473;SDS011;72350;53.232;6.556;2024-03-23T11:17:25;98.28;;;56.22;;
82473;SDS011;72350;53.232;6.556;2024-03-23T11:19:55;70.60;;;38.35;;
82473;SDS011;72350;53.232;6.556;2024-03-23T11:22:40;90.82;;;50.28;;
82473;SDS011;72350;53.232;6.556;2024-03-23T11:25:14;88.30;;;51.42;;
82473;SDS011;72350;53.232;6.556;2024-03-23T11:27:42;39.80;;;21.35;;
82473;SDS011;72350;53.232;6.556;2024-03-23T11:30:13;24.38;;;12.48;;
82473;SDS011;72350;53.232;6.556;2024-03-23T11:32:40;18.15;;;9.02;;
82473;SDS011;72350;53.232;6.556;2024-03-23T11:35:07;36.95;;;20.40;;
82473;SDS011;72350;53.232;6.556;2024-03-23T11:37:35;23.05;;;9.65;;
82473;SDS011;72350;53.232;6.556;2024-03-23T11:40:16;14.50;;;5.15;;
82473;SDS011;72350;53.232;6.556;2024-03-23T11:42:43;23.00;;;11.38;;
82473;SDS011;72350;53.232;6.556;2024-03-23T11:45:10;30.85;;;13.23;;
82473;SDS011;72350;53.232;6.556;2024-03-23T11:47:39;17.23;;;7.28;;
82473;SDS011;72350;53.232;6.556;2024-03-23T11:50:06;17.85;;;7.93;;
82473;SDS011;72350;53.232;6.556;2024-03-23T11:52:34;27.02;;;11.98;;
82473;SDS011;72350;53.232;6.556;2024-03-23T11:55:04;55.63;;;29.92;;
82473;SDS011;72350;53.232;6.556;2024-03-23T11:57:33;17.45;;;5.68;;
82473;SDS011;72350;53.232;6.556;2024-03-23T11:59:59;21.63;;;11.00;;
82473;SDS011;72350;53.232;6.556;2024-03-23T12:02:26;21.73;;;6.82;;
82473;SDS011;72350;53.232;6.556;2024-03-23T12:04:53;18.17;;;6.75;;
82473;SDS011;72350;53.232;6.556;2024-03-23T12:07:20;35.55;;;15.48;;
82473;SDS011;72350;53.232;6.556;2024-03-23T12:09:49;14.07;;;3.90;;
82473;SDS011;72350;53.232;6.556;2024-03-23T12:12:29;18.23;;;6.57;;
82473;SDS011;72350;53.232;6.556;2024-03-23T12:15:02;21.83;;;9.13;;
82473;SDS011;72350;53.232;6.556;2024-03-23T12:17:31;22.50;;;10.45;;
82473;SDS011;72350;53.232;6.556;2024-03-23T12:19:59;18.27;;;4.95;;
82473;SDS011;72350;53.232;6.556;2024-03-23T12:22:26;11.68;;;2.20;;
82473;SDS011;72350;53.232;6.556;2024-03-23T12:24:54;14.30;;;3.97;;
82473;SDS011;72350;53.232;6.556;2024-03-23T12:27:21;27.50;;;13.50;;
82473;SDS011;72350;53.232;6.556;2024-03-23T12:29:47;38.92;;;7.90;;
82473;SDS011;72350;53.232;6.556;2024-03-23T12:32:13;7.93;;;3.28;;
82473;SDS011;72350;53.232;6.556;2024-03-23T12:34:41;11.00;;;3.00;;
82473;SDS011;72350;53.232;6.556;2024-03-23T12:37:09;17.27;;;5.15;;
82473;SDS011;72350;53.232;6.556;2024-03-23T12:39:37;10.18;;;4.10;;
82473;SDS011;72350;53.232;6.556;2024-03-23T12:42:04;6.88;;;1.55;;
82473;SDS011;72350;53.232;6.556;2024-03-23T12:44:31;8.27;;;1.88;;
82473;SDS011;72350;53.232;6.556;2024-03-23T12:46:57;9.52;;;3.28;;
82473;SDS011;72350;53.232;6.556;2024-03-23T12:49:24;15.32;;;3.15;;
82473;SDS011;72350;53.232;6.556;2024-03-23T12:51:53;15.98;;;4.75;;
82473;SDS011;72350;53.232;6.556;2024-03-23T12:54:22;8.93;;;2.25;;
82473;SDS011;72350;53.232;6.556;2024-03-23T12:56:48;9.40;;;3.70;;
82473;SDS011;72350;53.232;6.556;2024-03-23T12:59:15;12.55;;;4.63;;
82473;SDS011;72350;53.232;6.556;2024-03-23T13:01:42;22.08;;;9.23;;
82473;SDS011;72350;53.232;6.556;2024-03-23T13:04:09;7.97;;;3.28;;
82473;SDS011;72350;53.232;6.556;2024-03-23T13:06:36;12.45;;;3.78;;
82473;SDS011;72350;53.232;6.556;2024-03-23T13:09:03;13.15;;;3.40;;
82473;SDS011;72350;53.232;6.556;2024-03-23T13:11:30;14.15;;;4.65;;
82473;SDS011;72350;53.232;6.556;2024-03-23T13:13:57;55.42;;;28.23;;
82473;SDS011;72350;53.232;6.556;2024-03-23T13:16:23;26.83;;;11.45;;
82473;SDS011;72350;53.232;6.556;2024-03-23T13:18:50;27.73;;;11.07;;
82473;SDS011;72350;53.232;6.556;2024-03-23T13:21:16;24.13;;;7.30;;
82473;SDS011;72350;53.232;6.556;2024-03-23T13:23:46;16.63;;;6.95;;
82473;SDS011;72350;53.232;6.556;2024-03-23T13:26:13;22.40;;;9.00;;
82473;SDS011;72350;53.232;6.556;2024-03-23T13:28:41;44.00;;;20.50;;
82473;SDS011;72350;53.232;6.556;2024-03-23T13:31:07;51.10;;;24.10;;
82473;SDS011;72350;53.232;6.556;2024-03-23T13:33:34;28.40;;;11.63;;
82473;SDS011;72350;53.232;6.556;2024-03-23T13:36:00;29.95;;;14.40;;
82473;SDS011;72350;53.232;6.556;2024-03-23T13:38:28;40.78;;;18.92;;
82473;SDS011;72350;53.232;6.556;2024-03-23T13:40:54;87.53;;;42.58;;
82473;SDS011;72350;53.232;6.556;2024-03-23T13:43:22;42.42;;;19.65;;
82473;SDS011;72350;53.232;6.556;2024-03-23T13:45:52;74.03;;;38.75;;
82473;SDS011;72350;53.232;6.556;2024-03-23T13:48:21;47.65;;;22.40;;
82473;SDS011;72350;53.232;6.556;2024-03-23T13:50:56;35.13;;;16.30;;
82473;SDS011;72350;53.232;6.556;2024-03-23T13:53:23;44.60;;;20.85;;
82473;SDS011;72350;53.232;6.556;2024-03-23T13:55:50;74.95;;;36.78;;
82473;SDS011;72350;53.232;6.556;2024-03-23T13:58:18;31.67;;;12.60;;
82473;SDS011;72350;53.232;6.556;2024-03-23T14:00:44;120.15;;;62.45;;
82473;SDS011;72350;53.232;6.556;2024-03-23T14:03:14;127.63;;;64.47;;
82473;SDS011;72350;53.232;6.556;2024-03-23T14:05:43;47.85;;;24.77;;
82473;SDS011;72350;53.232;6.556;2024-03-23T14:08:10;76.93;;;38.13;;
82473;SDS011;72350;53.232;6.556;2024-03-23T14:10:40;53.25;;;24.42;;
82473;SDS011;72350;53.232;6.556;2024-03-23T14:13:07;51.53;;;25.70;;
82473;SDS011;72350;53.232;6.556;2024-03-23T14:15:33;25.02;;;12.48;;
82473;SDS011;72350;53.232;6.556;2024-03-23T14:18:02;47.67;;;20.98;;
82473;SDS011;72350;53.232;6.556;2024-03-23T14:20:30;43.30;;;17.90;;
82473;SDS011;72350;53.232;6.556;2024-03-23T14:22:57;45.33;;;21.15;;
82473;SDS011;72350;53.232;6.556;2024-03-23T14:25:23;72.13;;;33.92;;
82473;SDS011;72350;53.232;6.556;2024-03-23T14:27:54;33.92;;;16.23;;
82473;SDS011;72350;53.232;6.556;2024-03-23T14:30:20;46.83;;;21.85;;
82473;SDS011;72350;53.232;6.556;2024-03-23T14:32:47;65.53;;;32.10;;
82473;SDS011;72350;53.232;6.556;2024-03-23T14:35:13;49.13;;;24.17;;
82473;SDS011;72350;53.232;6.556;2024-03-23T14:37:42;46.03;;;19.38;;
82473;SDS011;72350;53.232;6.556;2024-03-23T14:40:08;29.73;;;11.85;;
82473;SDS011;72350;53.232;6.556;2024-03-23T14:42:36;56.10;;;26.85;;
82473;SDS011;72350;53.232;6.556;2024-03-23T14:45:03;77.60;;;38.25;;
82473;SDS011;72350;53.232;6.556;2024-03-23T14:47:30;40.28;;;15.63;;
82473;SDS011;72350;53.232;6.556;2024-03-23T14:49:56;91.78;;;44.78;;
82473;SDS011;72350;53.232;6.556;2024-03-23T14:52:24;71.47;;;31.88;;
82473;SDS011;72350;53.232;6.556;2024-03-23T14:54:51;37.55;;;16.60;;
82473;SDS011;72350;53.232;6.556;2024-03-23T14:57:19;66.20;;;30.13;;
82473;SDS011;72350;53.232;6.556;2024-03-23T14:59:45;50.53;;;22.48;;
82473;SDS011;72350;53.232;6.556;2024-03-23T15:02:12;66.32;;;32.22;;
82473;SDS011;72350;53.232;6.556;2024-03-23T15:04:39;30.73;;;11.50;;
82473;SDS011;72350;53.232;6.556;2024-03-23T15:07:07;25.52;;;9.23;;
82473;SDS011;72350;53.232;6.556;2024-03-23T15:09:33;59.15;;;26.85;;
82473;SDS011;72350;53.232;6.556;2024-03-23T15:12:01;39.05;;;15.80;;
82473;SDS011;72350;53.232;6.556;2024-03-23T15:14:28;49.42;;;21.75;;
82473;SDS011;72350;53.232;6.556;2024-03-23T15:16:54;53.65;;;25.58;;
82473;SDS011;72350;53.232;6.556;2024-03-23T15:19:20;97.35;;;47.10;;
82473;SDS011;72350;53.232;6.556;2024-03-23T15:21:47;38.97;;;18.25;;
82473;SDS011;72350;53.232;6.556;2024-03-23T15:24:13;72.97;;;34.25;;